sensor_id;sensor_type;location;lat;lon;timestamp;P1;durP1;ratioP1;P2;durP2;ratioP2
52272;SDS011;38227;50.942;4.016;2023-09-07T04:58:10;13.60;;;6.50;;
52272;SDS011;38227;50.942;4.016;2023-09-07T05:01:04;8.27;;;5.57;;
52272;SDS011;38227;50.942;4.016;2023-09-07T05:03:37;11.50;;;6.50;;
52272;SDS011;38227;50.942;4.016;2023-09-07T05:06:19;8.45;;;5.90;;
52272;SDS011;38227;50.942;4.016;2023-09-07T05:09:03;8.57;;;5.65;;
52272;SDS011;38227;50.942;4.016;2023-09-07T05:11:41;8.63;;;5.30;;
52272;SDS011;38227;50.942;4.016;2023-09-07T05:14:12;8.57;;;5.35;;
52272;SDS011;38227;50.942;4.016;2023-09-07T05:16:51;7.50;;;4.80;;
52272;SDS011;38227;50.942;4.016;2023-09-07T05:19:21;8.23;;;5.45;;
52272;SDS011;38227;50.942;4.016;2023-09-07T05:21:56;11.05;;;5.72;;
52272;SDS011;38227;50.942;4.016;2023-09-07T05:24:37;8.90;;;5.35;;
52272;SDS011;38227;50.942;4.016;2023-09-07T05:27:16;10.05;;;5.40;;
52272;SDS011;38227;50.942;4.016;2023-09-07T05:29:46;7.12;;;5.00;;
52272;SDS011;38227;50.942;4.016;2023-09-07T05:32:16;10.52;;;6.32;;
52272;SDS011;38227;50.942;4.016;2023-09-07T05:34:48;8.43;;;6.15;;
52272;SDS011;38227;50.942;4.016;2023-09-07T05:37:27;10.23;;;6.05;;
52272;SDS011;38227;50.942;4.016;2023-09-07T05:40:04;9.73;;;5.97;;
52272;SDS011;38227;50.942;4.016;2023-09-07T05:42:37;9.90;;;6.50;;
52272;SDS011;38227;50.942;4.016;2023-09-07T05:45:06;10.82;;;6.57;;
52272;SDS011;38227;50.942;4.016;2023-09-07T05:47:39;10.20;;;6.70;;
52272;SDS011;38227;50.942;4.016;2023-09-07T05:50:17;13.85;;;6.30;;
52272;SDS011;38227;50.942;4.016;2023-09-07T05:52:46;9.95;;;6.35;;
52272;SDS011;38227;50.942;4.016;2023-09-07T05:55:16;11.10;;;6.62;;
52272;SDS011;38227;50.942;4.016;2023-09-07T05:57:49;9.98;;;6.07;;
52272;SDS011;38227;50.942;4.016;2023-09-07T06:00:26;8.32;;;5.68;;
52272;SDS011;38227;50.942;4.016;2023-09-07T06:02:57;11.30;;;5.87;;
52272;SDS011;38227;50.942;4.016;2023-09-07T06:05:26;11.98;;;5.70;;
52272;SDS011;38227;50.942;4.016;2023-09-07T06:08:05;8.93;;;6.32;;
52272;SDS011;38227;50.942;4.016;2023-09-07T06:10:45;9.75;;;6.35;;
52272;SDS011;38227;50.942;4.016;2023-09-07T06:13:13;9.75;;;6.40;;
52272;SDS011;38227;50.942;4.016;2023-09-07T06:15:42;10.13;;;6.65;;
52272;SDS011;38227;50.942;4.016;2023-09-07T06:18:12;10.70;;;6.22;;
52272;SDS011;38227;50.942;4.016;2023-09-07T06:20:41;9.27;;;6.15;;
52272;SDS011;38227;50.942;4.016;2023-09-07T06:23:11;10.00;;;6.47;;
52272;SDS011;38227;50.942;4.016;2023-09-07T06:25:40;10.10;;;6.30;;
52272;SDS011;38227;50.942;4.016;2023-09-07T06:28:12;13.38;;;7.05;;
52272;SDS011;38227;50.942;4.016;2023-09-07T06:30:49;10.13;;;5.82;;
52272;SDS011;38227;50.942;4.016;2023-09-07T06:35:34;9.23;;;6.17;;
52272;SDS011;38227;50.942;4.016;2023-09-07T06:38:07;9.93;;;5.57;;
52272;SDS011;38227;50.942;4.016;2023-09-07T06:40:38;11.07;;;5.43;;
52272;SDS011;38227;50.942;4.016;2023-09-07T06:43:08;7.03;;;4.97;;
52272;SDS011;38227;50.942;4.016;2023-09-07T06:47:27;6.60;;;4.15;;
52272;SDS011;38227;50.942;4.016;2023-09-07T06:50:06;7.90;;;4.72;;
52272;SDS011;38227;50.942;4.016;2023-09-07T06:52:37;8.20;;;4.53;;
52272;SDS011;38227;50.942;4.016;2023-09-07T06:55:11;6.75;;;4.40;;
52272;SDS011;38227;50.942;4.016;2023-09-07T06:57:41;5.30;;;3.90;;
52272;SDS011;38227;50.942;4.016;2023-09-07T07:00:11;6.60;;;3.97;;
52272;SDS011;38227;50.942;4.016;2023-09-07T07:02:43;6.45;;;3.70;;
52272;SDS011;38227;50.942;4.016;2023-09-07T07:05:14;6.87;;;3.90;;
52272;SDS011;38227;50.942;4.016;2023-09-07T07:07:55;10.98;;;8.15;;
52272;SDS011;38227;50.942;4.016;2023-09-07T07:10:26;6.72;;;3.40;;
52272;SDS011;38227;50.942;4.016;2023-09-07T07:12:58;5.93;;;3.67;;
52272;SDS011;38227;50.942;4.016;2023-09-07T07:15:31;7.22;;;3.92;;
52272;SDS011;38227;50.942;4.016;2023-09-07T07:18:02;4.90;;;3.33;;
52272;SDS011;38227;50.942;4.016;2023-09-07T07:20:39;4.97;;;3.67;;
52272;SDS011;38227;50.942;4.016;2023-09-07T07:23:11;4.20;;;3.12;;
52272;SDS011;38227;50.942;4.016;2023-09-07T07:25:47;6.47;;;2.87;;
52272;SDS011;38227;50.942;4.016;2023-09-07T07:28:18;3.47;;;2.92;;
52272;SDS011;38227;50.942;4.016;2023-09-07T07:31:07;4.70;;;2.80;;
52272;SDS011;38227;50.942;4.016;2023-09-07T07:33:39;5.53;;;3.17;;
52272;SDS011;38227;50.942;4.016;2023-09-07T07:36:15;3.08;;;2.60;;
52272;SDS011;38227;50.942;4.016;2023-09-07T07:38:52;5.30;;;2.75;;
52272;SDS011;38227;50.942;4.016;2023-09-07T07:41:22;3.30;;;2.30;;
52272;SDS011;38227;50.942;4.016;2023-09-07T07:44:03;4.65;;;2.60;;
52272;SDS011;38227;50.942;4.016;2023-09-07T07:46:46;3.37;;;2.42;;
52272;SDS011;38227;50.942;4.016;2023-09-07T07:49:30;4.22;;;2.78;;
52272;SDS011;38227;50.942;4.016;2023-09-07T07:52:18;2.62;;;2.25;;
52272;SDS011;38227;50.942;4.016;2023-09-07T07:54:53;4.85;;;2.50;;
52272;SDS011;38227;50.942;4.016;2023-09-07T07:57:31;4.47;;;2.70;;
52272;SDS011;38227;50.942;4.016;2023-09-07T08:00:12;3.72;;;2.62;;
52272;SDS011;38227;50.942;4.016;2023-09-07T08:02:43;4.62;;;2.72;;
52272;SDS011;38227;50.942;4.016;2023-09-07T08:05:16;3.70;;;2.53;;
52272;SDS011;38227;50.942;4.016;2023-09-07T08:07:56;3.40;;;2.40;;
52272;SDS011;38227;50.942;4.016;2023-09-07T08:10:36;4.55;;;2.60;;
52272;SDS011;38227;50.942;4.016;2023-09-07T08:13:07;4.53;;;2.25;;
52272;SDS011;38227;50.942;4.016;2023-09-07T08:15:41;3.30;;;2.42;;
52272;SDS011;38227;50.942;4.016;2023-09-07T08:18:25;3.12;;;2.12;;
52272;SDS011;38227;50.942;4.016;2023-09-07T08:21:02;3.08;;;2.67;;
52272;SDS011;38227;50.942;4.016;2023-09-07T08:23:42;3.30;;;2.47;;
52272;SDS011;38227;50.942;4.016;2023-09-07T08:26:11;5.57;;;2.65;;
52272;SDS011;38227;50.942;4.016;2023-09-07T08:28:45;5.80;;;2.50;;
52272;SDS011;38227;50.942;4.016;2023-09-07T08:31:31;3.70;;;2.40;;
52272;SDS011;38227;50.942;4.016;2023-09-07T08:34:03;6.22;;;2.30;;
52272;SDS011;38227;50.942;4.016;2023-09-07T08:36:34;2.78;;;2.20;;
52272;SDS011;38227;50.942;4.016;2023-09-07T08:39:03;3.60;;;2.35;;
52272;SDS011;38227;50.942;4.016;2023-09-07T08:41:38;3.75;;;2.30;;
52272;SDS011;38227;50.942;4.016;2023-09-07T08:44:18;3.00;;;2.33;;
52272;SDS011;38227;50.942;4.016;2023-09-07T08:46:49;2.90;;;2.10;;
52272;SDS011;38227;50.942;4.016;2023-09-07T08:49:30;8.02;;;2.60;;
52272;SDS011;38227;50.942;4.016;2023-09-07T08:52:04;2.25;;;2.05;;
52272;SDS011;38227;50.942;4.016;2023-09-07T08:54:37;3.17;;;2.15;;
52272;SDS011;38227;50.942;4.016;2023-09-07T08:57:08;3.25;;;2.40;;
52272;SDS011;38227;50.942;4.016;2023-09-07T08:59:38;4.75;;;2.78;;
52272;SDS011;38227;50.942;4.016;2023-09-07T09:02:09;2.78;;;2.30;;
52272;SDS011;38227;50.942;4.016;2023-09-07T09:04:42;4.72;;;2.62;;
52272;SDS011;38227;50.942;4.016;2023-09-07T09:07:12;3.00;;;2.20;;
52272;SDS011;38227;50.942;4.016;2023-09-07T09:09:43;3.95;;;2.53;;
52272;SDS011;38227;50.942;4.016;2023-09-07T09:12:16;7.85;;;2.65;;
52272;SDS011;38227;50.942;4.016;2023-09-07T09:14:58;6.85;;;2.05;;
52272;SDS011;38227;50.942;4.016;2023-09-07T09:17:29;3.53;;;2.60;;
52272;SDS011;38227;50.942;4.016;2023-09-07T09:19:59;3.03;;;2.28;;
52272;SDS011;38227;50.942;4.016;2023-09-07T09:22:35;5.43;;;2.35;;
52272;SDS011;38227;50.942;4.016;2023-09-07T09:25:07;3.10;;;2.20;;
52272;SDS011;38227;50.942;4.016;2023-09-07T09:27:38;4.53;;;2.45;;
52272;SDS011;38227;50.942;4.016;2023-09-07T09:30:08;2.00;;;1.80;;
52272;SDS011;38227;50.942;4.016;2023-09-07T09:32:41;2.37;;;1.92;;
52272;SDS011;38227;50.942;4.016;2023-09-07T09:35:10;3.20;;;2.00;;
52272;SDS011;38227;50.942;4.016;2023-09-07T09:37:46;3.25;;;2.30;;
